EDT,Max TemperatureF,Mean TemperatureF,Min TemperatureF,Max Dew PointF,MeanDew PointF,Min DewpointF,Max Humidity, Mean Humidity, Min Humidity, Max Sea Level PressureIn, Mean Sea Level PressureIn, Min Sea Level PressureIn, Max VisibilityMiles, Mean VisibilityMiles, Min VisibilityMiles, Max Wind SpeedMPH, Mean Wind SpeedMPH, Max Gust SpeedMPH,PrecipitationIn, CloudCover, Events, WindDirDegrees
2012-10-1,80,73,66,75,68,63,94,87,79,29.94,29.90,29.87,10,10,2,15,5,20,0.05,7,Rain,86
2012-10-2,80,78,75,76,75,73,94,90,85,30.03,29.95,29.89,10,6,1,21,10,32,0.52,4,Rain,195
2012-10-3,82,80,77,79,76,74,94,87,79,30.17,30.12,30.04,10,7,1,10,7,16,0.11,2,Rain,215
2012-10-4,83,79,74,76,72,68,94,79,63,30.21,30.17,30.13,10,10,7,13,6,18,0.00,1,,269
2012-10-5,80,72,63,69,64,58,87,68,48,30.14,30.09,30.04,10,10,10,10,5,16,0.00,0,,25
2012-10-6,80,71,61,67,63,59,97,76,54,30.02,29.96,29.90,10,10,7,12,5,15,0.00,0,,241
2012-10-7,81,73,64,69,67,61,90,79,67,30.08,29.99,29.95,10,10,10,13,6,23,0.00,4,,264
2012-10-8,74,70,65,68,64,57,90,82,73,30.17,30.06,30.01,10,10,10,14,8,24,0.02,7,Rain,34
2012-10-9,71,69,66,68,66,63,93,86,79,30.04,30.02,29.98,10,10,10,14,6,20,0.00,6,,8
2012-10-10,68,65,62,63,57,53,87,73,59,30.06,30.01,29.97,10,10,10,12,7,18,0.00,5,,287
2012-10-11,68,60,51,55,49,47,77,63,48,30.26,30.20,30.06,10,10,10,16,8,26,0.00,0,,26
2012-10-12,73,62,51,55,50,47,77,63,49,30.30,30.21,30.14,10,10,10,16,7,28,0.00,0,,355
2012-10-13,69,65,60,57,50,45,84,68,52,30.42,30.36,30.30,10,10,10,16,9,28,0.00,0,,41
2012-10-14,79,69,59,63,59,53,93,74,54,30.32,30.21,30.09,10,10,10,14,4,18,0.00,1,,85
2012-10-15,77,70,62,71,66,60,100,85,69,30.06,29.87,29.73,10,8,1,17,5,30,0.36,5,Rain,233
2012-10-16,68,60,52,65,54,48,87,72,56,29.94,29.84,29.74,10,10,10,14,7,25,0.00,1,,11
2012-10-17,69,61,52,54,51,48,83,71,58,30.02,29.98,29.94,10,10,10,10,5,14,0.00,0,,43
2012-10-18,80,71,61,70,63,53,87,65,42,29.97,29.92,29.82,10,9,2,22,7,28,0.23,5,Rain,160
2012-10-19,80,74,68,72,70,66,93,82,71,29.83,29.79,29.73,10,6,1,15,5,20,T,2,,226
2012-10-20,76,71,65,65,52,47,79,58,36,29.90,29.83,29.79,10,10,10,15,8,21,0.00,0,,263
2012-10-21,69,65,60,57,50,45,78,66,53,30.13,30.04,29.91,10,10,10,14,6,21,0.00,0,,18
2012-10-22,69,60,50,50,47,43,89,67,44,30.21,30.17,30.13,10,10,10,8,3,13,0.00,0,,180
2012-10-23,72,61,50,55,52,47,93,70,47,30.20,30.17,30.14,10,10,10,12,5,15,0.00,0,,251
2012-10-24,77,71,64,66,62,56,93,75,57,30.20,30.15,30.12,10,10,10,10,5,15,0.00,0,,238
2012-10-25,78,72,65,66,64,61,93,75,56,30.18,30.13,30.09,10,10,7,10,5,14,0.00,0,,30
2012-10-26,76,72,68,70,66,63,93,81,68,30.09,29.98,29.84,10,8,1,16,9,25,0.24,4,Rain,48
2012-10-27,73,69,65,66,65,62,93,86,79,29.82,29.55,29.43,10,4,1,24,15,40,3.22,8,Rain,48
2012-10-28,67,64,61,64,63,60,100,97,93,29.43,29.32,29.25,6,2,1,23,20,54,4.55,8,Rain,17
2012-10-29,59,54,49,45,42,39,71,69,66,29.31,29.28,29.24,10,10,10,29,22,45,0.08,8,,264
2012-10-30,58,53,48,42,39,36,77,66,55,29.62,29.46,29.33,10,10,10,25,16,39,0.00,4,,260
2012-10-31,59,54,49,41,38,36,61,56,51,29.76,29.69,29.63,10,10,10,16,11,24,0.00,2,,273